Time;durP1;ratioP1;P1;durP2;ratioP2;P2;SDS_P1;SDS_P2;PMS_P1;PMS_P2;Temp;Humidity;BMP_temperature;BMP_pressure;BME280_temperature;BME280_humidity;BME280_pressure;Samples;Min_cycle;Max_cycle;Signal;HPM_P1;HPM_P2
2023/08/05 00:02:22;;;;;;;0.00;0.00;;;;;;;;;;4932183;29;20027;-85
2023/08/05 00:04:48;;;;;;;0.20;0.15;;;;;;;;;;4932737;28;20150;-84
2023/08/05 00:07:14;;;;;;;0.15;0.15;;;;;;;;;;4950750;28;20511;-85
2023/08/05 00:09:40;;;;;;;0.10;0.10;;;;;;;;;;4951212;28;20027;-84
2023/08/05 00:12:06;;;;;;;0.10;0.10;;;;;;;;;;4951462;28;20043;-84
2023/08/05 00:14:35;;;;;;;0.43;0.32;;;;;;;;;;4951028;28;20031;-84
2023/08/05 00:17:01;;;;;;;0.10;0.10;;;;;;;;;;4953197;28;20499;-84
2023/08/05 00:19:27;;;;;;;0.38;0.15;;;;;;;;;;4954488;28;20082;-84
2023/08/05 00:21:53;;;;;;;0.17;0.17;;;;;;;;;;4952710;28;20031;-86
2023/08/05 00:24:19;;;;;;;0.00;0.00;;;;;;;;;;4954199;28;20035;-84
2023/08/05 00:26:45;;;;;;;0.00;0.00;;;;;;;;;;4954786;28;20063;-84
2023/08/05 00:29:11;;;;;;;0.00;0.00;;;;;;;;;;4954483;29;20438;-85
2023/08/05 00:31:37;;;;;;;0.20;0.20;;;;;;;;;;4954275;29;20028;-85
2023/08/05 00:34:03;;;;;;;0.25;0.10;;;;;;;;;;4954260;29;20033;-84
2023/08/05 00:36:29;;;;;;;0.10;0.10;;;;;;;;;;4952133;29;20031;-84
2023/08/05 00:38:55;;;;;;;0.10;0.10;;;;;;;;;;4954184;28;20074;-84
2023/08/05 00:41:21;;;;;;;0.10;0.10;;;;;;;;;;4954087;28;20069;-85
2023/08/05 00:43:47;;;;;;;0.00;0.00;;;;;;;;;;4954571;28;20161;-84
2023/08/05 00:46:13;;;;;;;0.00;0.00;;;;;;;;;;4952895;28;20093;-84
2023/08/05 00:48:39;;;;;;;0.00;0.00;;;;;;;;;;4954389;28;20034;-84
2023/08/05 00:51:06;;;;;;;0.10;0.10;;;;;;;;;;4948254;28;20067;-84
2023/08/05 00:53:32;;;;;;;0.10;0.10;;;;;;;;;;4935229;29;20122;-84
2023/08/05 00:55:58;;;;;;;0.00;0.00;;;;;;;;;;4935145;29;20035;-84
2023/08/05 00:58:24;;;;;;;0.00;0.00;;;;;;;;;;4934768;29;20032;-84
2023/08/05 01:00:50;;;;;;;0.08;0.08;;;;;;;;;;4934831;29;20050;-85
2023/08/05 01:03:16;;;;;;;0.10;0.10;;;;;;;;;;4935433;29;20031;-84
2023/08/05 01:05:43;;;;;;;0.00;0.00;;;;;;;;;;4944120;28;20039;-84
2023/08/05 01:08:11;;;;;;;0.63;0.25;;;;;;;;;;4953650;29;20373;-84
2023/08/05 01:10:37;;;;;;;0.17;0.17;;;;;;;;;;4952363;29;20036;-84
2023/08/05 01:13:03;;;;;;;0.10;0.10;;;;;;;;;;4952362;29;20495;-84
2023/08/05 01:15:29;;;;;;;0.10;0.10;;;;;;;;;;4953747;29;20042;-84
2023/08/05 01:17:56;;;;;;;0.10;0.10;;;;;;;;;;4954164;29;20035;-84
2023/08/05 01:20:24;;;;;;;0.10;0.10;;;;;;;;;;4949144;28;20031;-84
2023/08/05 01:22:53;;;;;;;0.00;0.00;;;;;;;;;;4935296;29;20040;-85
2023/08/05 01:25:27;;;;;;;0.10;0.10;;;;;;;;;;4953451;28;20046;-84
2023/08/05 01:27:53;;;;;;;0.03;0.03;;;;;;;;;;4952363;28;20034;-85
2023/08/05 01:30:21;;;;;;;0.10;0.10;;;;;;;;;;4971861;28;20484;-84
2023/08/05 01:32:47;;;;;;;0.03;0.03;;;;;;;;;;5034298;28;20040;-84
2023/08/05 01:35:13;;;;;;;0.05;0.05;;;;;;;;;;5031944;28;20087;-85
2023/08/05 01:37:39;;;;;;;0.10;0.10;;;;;;;;;;5034495;28;20030;-84
2023/08/05 01:40:05;;;;;;;0.10;0.10;;;;;;;;;;5034753;28;20700;-84
2023/08/05 01:42:31;;;;;;;0.10;0.10;;;;;;;;;;5034445;28;20627;-84
2023/08/05 01:44:57;;;;;;;0.10;0.10;;;;;;;;;;5034552;28;20060;-84
2023/08/05 01:47:23;;;;;;;0.10;0.10;;;;;;;;;;5034004;28;20029;-84
2023/08/05 01:49:49;;;;;;;0.43;0.20;;;;;;;;;;5027988;28;20025;-84
2023/08/05 01:52:15;;;;;;;0.08;0.08;;;;;;;;;;4934132;28;20040;-85
2023/08/05 01:54:41;;;;;;;0.10;0.10;;;;;;;;;;4989719;28;20488;-84
2023/08/05 01:57:07;;;;;;;0.00;0.00;;;;;;;;;;4953026;29;20045;-85
2023/08/05 01:59:33;;;;;;;0.00;0.00;;;;;;;;;;4953125;28;20080;-84
2023/08/05 02:01:59;;;;;;;0.08;0.08;;;;;;;;;;4953235;29;20483;-84
2023/08/05 02:04:25;;;;;;;0.00;0.00;;;;;;;;;;4952929;29;20019;-84
2023/08/05 02:06:51;;;;;;;0.10;0.10;;;;;;;;;;4952633;28;20093;-84
2023/08/05 02:09:17;;;;;;;0.00;0.00;;;;;;;;;;4952881;29;20496;-84
2023/08/05 02:11:43;;;;;;;0.15;0.15;;;;;;;;;;4950799;29;20122;-85
2023/08/05 02:14:09;;;;;;;0.00;0.00;;;;;;;;;;4952833;28;20107;-84
2023/08/05 02:16:35;;;;;;;0.10;0.10;;;;;;;;;;4953340;28;20051;-84
2023/08/05 02:19:01;;;;;;;0.00;0.00;;;;;;;;;;4952734;28;20118;-84
2023/08/05 02:21:27;;;;;;;0.10;0.10;;;;;;;;;;4952669;28;20106;-84
2023/08/05 02:23:53;;;;;;;0.10;0.10;;;;;;;;;;4952660;28;20038;-84
2023/08/05 02:26:19;;;;;;;0.00;0.00;;;;;;;;;;5027748;28;20091;-85
2023/08/05 02:28:46;;;;;;;0.10;0.10;;;;;;;;;;5033684;28;20021;-84
2023/08/05 02:31:12;;;;;;;0.10;0.10;;;;;;;;;;5033898;28;20121;-85
2023/08/05 02:33:38;;;;;;;0.10;0.10;;;;;;;;;;5033500;28;20037;-84
2023/08/05 02:36:04;;;;;;;0.10;0.10;;;;;;;;;;5033804;28;20108;-84
2023/08/05 02:38:30;;;;;;;0.13;0.13;;;;;;;;;;5017280;28;20121;-84
2023/08/05 02:40:56;;;;;;;0.20;0.20;;;;;;;;;;4933251;29;20051;-84
2023/08/05 02:43:22;;;;;;;0.10;0.10;;;;;;;;;;4933264;29;20043;-84
2023/08/05 02:45:57;;;;;;;0.00;0.00;;;;;;;;;;4932931;29;20077;-85
2023/08/05 02:48:23;;;;;;;0.13;0.13;;;;;;;;;;4933214;29;20488;-85
2023/08/05 02:50:49;;;;;;;0.38;0.38;;;;;;;;;;4933224;29;20024;-84
2023/08/05 02:53:16;;;;;;;0.10;0.10;;;;;;;;;;4933519;29;20036;-84
2023/08/05 02:55:42;;;;;;;0.10;0.10;;;;;;;;;;4944945;29;20031;-84
2023/08/05 02:58:08;;;;;;;0.20;0.20;;;;;;;;;;4935891;28;20035;-85
2023/08/05 03:00:34;;;;;;;0.30;0.30;;;;;;;;;;4932751;29;20055;-84
2023/08/05 03:03:00;;;;;;;0.20;0.20;;;;;;;;;;4933368;29;20031;-85
2023/08/05 03:05:26;;;;;;;0.00;0.00;;;;;;;;;;4938981;28;20509;-84
2023/08/05 03:07:52;;;;;;;0.10;0.10;;;;;;;;;;4951968;29;20033;-84
2023/08/05 03:10:18;;;;;;;0.10;0.10;;;;;;;;;;4948727;28;20035;-84
2023/08/05 03:12:44;;;;;;;0.10;0.10;;;;;;;;;;4931856;29;20098;-84
2023/08/05 03:15:10;;;;;;;0.20;0.20;;;;;;;;;;4931089;28;20048;-84
2023/08/05 03:17:36;;;;;;;0.22;0.22;;;;;;;;;;4932611;29;20063;-84
2023/08/05 03:20:04;;;;;;;0.17;0.17;;;;;;;;;;4932679;29;20039;-84
2023/08/05 03:22:30;;;;;;;0.20;0.20;;;;;;;;;;4933387;29;20031;-84
2023/08/05 03:24:56;;;;;;;2.25;0.25;;;;;;;;;;4943493;28;20031;-84
2023/08/05 03:27:22;;;;;;;0.10;0.10;;;;;;;;;;4932562;29;20031;-85
2023/08/05 03:29:48;;;;;;;0.43;0.43;;;;;;;;;;4932663;29;20015;-84
2023/08/05 03:32:14;;;;;;;0.10;0.10;;;;;;;;;;4932697;29;20121;-85
2023/08/05 03:34:40;;;;;;;0.10;0.10;;;;;;;;;;4932482;29;20468;-85
2023/08/05 03:37:06;;;;;;;0.17;0.17;;;;;;;;;;4932523;29;20039;-84
2023/08/05 03:39:32;;;;;;;0.10;0.10;;;;;;;;;;4934962;29;20027;-85
2023/08/05 03:41:58;;;;;;;0.25;0.25;;;;;;;;;;4951537;28;20028;-84
2023/08/05 03:44:24;;;;;;;0.10;0.10;;;;;;;;;;4951390;28;20112;-84
2023/08/05 03:46:50;;;;;;;0.00;0.00;;;;;;;;;;4951523;28;20034;-84
2023/08/05 03:49:16;;;;;;;0.00;0.00;;;;;;;;;;4951773;29;20066;-84
2023/08/05 03:51:42;;;;;;;0.65;0.65;;;;;;;;;;4950439;28;20495;-83
2023/08/05 03:54:08;;;;;;;0.20;0.17;;;;;;;;;;4948511;29;20042;-85
2023/08/05 03:56:34;;;;;;;0.10;0.10;;;;;;;;;;4937386;29;20106;-85
2023/08/05 03:59:00;;;;;;;0.10;0.10;;;;;;;;;;4951248;29;20379;-85
2023/08/05 04:01:27;;;;;;;0.00;0.00;;;;;;;;;;4948999;28;20027;-84
2023/08/05 04:03:53;;;;;;;0.10;0.10;;;;;;;;;;4951450;29;20020;-84
2023/08/05 04:06:20;;;;;;;0.32;0.30;;;;;;;;;;4951499;28;20077;-85
2023/08/05 04:08:48;;;;;;;0.30;0.30;;;;;;;;;;4950923;29;20028;-85
2023/08/05 04:11:14;;;;;;;0.30;0.30;;;;;;;;;;4949810;29;20028;-85
2023/08/05 04:13:40;;;;;;;0.00;0.00;;;;;;;;;;4951246;29;20096;-85
2023/08/05 04:16:08;;;;;;;0.10;0.10;;;;;;;;;;4950928;28;20047;-85
2023/08/05 04:18:35;;;;;;;0.20;0.20;;;;;;;;;;4951149;28;20110;-85
2023/08/05 04:21:03;;;;;;;0.00;0.00;;;;;;;;;;4950682;28;20028;-85
2023/08/05 04:23:31;;;;;;;0.10;0.10;;;;;;;;;;4950874;28;20034;-85
2023/08/05 04:25:59;;;;;;;0.10;0.10;;;;;;;;;;4933455;28;20028;-85
2023/08/05 04:28:25;;;;;;;0.10;0.10;;;;;;;;;;4930943;28;20043;-85
2023/08/05 04:30:52;;;;;;;0.10;0.10;;;;;;;;;;4931822;29;20023;-85
2023/08/05 04:33:18;;;;;;;0.20;0.20;;;;;;;;;;4932753;29;20044;-85
2023/08/05 04:35:45;;;;;;;0.15;0.15;;;;;;;;;;4931422;29;20451;-85
2023/08/05 04:38:12;;;;;;;0.10;0.10;;;;;;;;;;4930803;29;20031;-85
2023/08/05 04:40:37;;;;;;;0.08;0.08;;;;;;;;;;4941395;29;20539;-85
2023/08/05 04:43:03;;;;;;;0.10;0.10;;;;;;;;;;4950575;28;20027;-85
2023/08/05 04:45:29;;;;;;;0.13;0.13;;;;;;;;;;4950198;28;20058;-85
2023/08/05 04:47:55;;;;;;;0.10;0.10;;;;;;;;;;4950758;28;20475;-85
2023/08/05 04:50:22;;;;;;;0.10;0.10;;;;;;;;;;4951240;28;20066;-84
2023/08/05 04:52:48;;;;;;;2.83;0.47;;;;;;;;;;4949698;28;20118;-84
2023/08/05 04:55:17;;;;;;;0.10;0.10;;;;;;;;;;4993575;28;20021;-84
2023/08/05 04:57:44;;;;;;;0.10;0.10;;;;;;;;;;4999430;28;20420;-84
2023/08/05 05:00:10;;;;;;;0.10;0.10;;;;;;;;;;4931504;29;20031;-84
2023/08/05 05:02:38;;;;;;;0.10;0.10;;;;;;;;;;4932694;29;20034;-84
2023/08/05 05:05:04;;;;;;;0.10;0.10;;;;;;;;;;4937924;28;20059;-84
2023/08/05 05:07:30;;;;;;;0.17;0.17;;;;;;;;;;4954143;29;20491;-84
2023/08/05 05:09:56;;;;;;;0.00;0.00;;;;;;;;;;4948253;29;20527;-84
2023/08/05 05:12:22;;;;;;;0.00;0.00;;;;;;;;;;4935269;29;20051;-84
2023/08/05 05:14:48;;;;;;;0.10;0.10;;;;;;;;;;4934392;28;20093;-83
2023/08/05 05:17:17;;;;;;;0.10;0.10;;;;;;;;;;4934780;29;20063;-84
2023/08/05 05:19:44;;;;;;;0.32;0.32;;;;;;;;;;4934415;29;20036;-84
2023/08/05 05:22:10;;;;;;;0.70;0.52;;;;;;;;;;4934544;29;20020;-83
2023/08/05 05:24:36;;;;;;;0.00;0.00;;;;;;;;;;4946648;28;20499;-84
2023/08/05 05:27:02;;;;;;;0.10;0.10;;;;;;;;;;4951786;28;20118;-84
2023/08/05 05:29:29;;;;;;;0.10;0.10;;;;;;;;;;4933111;29;20118;-84
2023/08/05 05:31:55;;;;;;;0.15;0.15;;;;;;;;;;4934550;29;20062;-84
2023/08/05 05:34:21;;;;;;;0.10;0.10;;;;;;;;;;4936205;29;20452;-84
2023/08/05 05:36:47;;;;;;;0.00;0.00;;;;;;;;;;4953390;28;20035;-83
2023/08/05 05:39:13;;;;;;;0.00;0.00;;;;;;;;;;4952866;28;20503;-84
2023/08/05 05:41:39;;;;;;;0.10;0.10;;;;;;;;;;4940095;28;20066;-84
2023/08/05 05:44:05;;;;;;;0.10;0.10;;;;;;;;;;4934201;29;20028;-84
2023/08/05 05:46:32;;;;;;;0.47;0.20;;;;;;;;;;4934040;29;20484;-83
2023/08/05 05:48:58;;;;;;;0.20;0.20;;;;;;;;;;4934198;29;20059;-83
2023/08/05 05:51:25;;;;;;;0.10;0.10;;;;;;;;;;4933991;29;20023;-83
2023/08/05 05:53:51;;;;;;;0.10;0.10;;;;;;;;;;4933707;29;20071;-83
2023/08/05 05:56:17;;;;;;;0.10;0.10;;;;;;;;;;4933673;29;20031;-84
2023/08/05 05:58:43;;;;;;;0.20;0.20;;;;;;;;;;4933881;29;20024;-83
2023/08/05 06:01:09;;;;;;;0.10;0.10;;;;;;;;;;4933952;29;20110;-83
2023/08/05 06:03:37;;;;;;;0.10;0.10;;;;;;;;;;4933944;29;20432;-83
2023/08/05 06:06:03;;;;;;;0.10;0.10;;;;;;;;;;4944998;28;20023;-83
2023/08/05 06:08:29;;;;;;;0.10;0.10;;;;;;;;;;4952612;29;20031;-83
2023/08/05 06:10:55;;;;;;;0.30;0.20;;;;;;;;;;4942845;28;20031;-82
2023/08/05 06:13:21;;;;;;;0.10;0.10;;;;;;;;;;4933599;29;20040;-83
2023/08/05 06:15:47;;;;;;;0.10;0.10;;;;;;;;;;4933081;29;20450;-83
2023/08/05 06:18:13;;;;;;;0.03;0.03;;;;;;;;;;4933712;29;20107;-83
2023/08/05 06:20:39;;;;;;;0.28;0.28;;;;;;;;;;4933767;29;20108;-83
2023/08/05 06:23:06;;;;;;;0.45;0.45;;;;;;;;;;4933501;28;20476;-84
2023/08/05 06:25:33;;;;;;;0.00;0.00;;;;;;;;;;4940990;29;20028;-84
2023/08/05 06:27:59;;;;;;;0.15;0.15;;;;;;;;;;4933164;29;20040;-83
2023/08/05 06:30:25;;;;;;;0.28;0.28;;;;;;;;;;4933938;29;20027;-83
2023/08/05 06:32:51;;;;;;;0.47;0.45;;;;;;;;;;4933632;29;20044;-83
2023/08/05 06:35:17;;;;;;;0.22;0.22;;;;;;;;;;4933328;29;20027;-84
2023/08/05 06:37:43;;;;;;;0.03;0.03;;;;;;;;;;4933105;29;20039;-83
2023/08/05 06:40:09;;;;;;;0.43;0.38;;;;;;;;;;4938926;28;20020;-84
2023/08/05 06:42:35;;;;;;;0.32;0.32;;;;;;;;;;4947027;29;20027;-83
2023/08/05 06:45:01;;;;;;;0.10;0.10;;;;;;;;;;4951835;29;20551;-82
2023/08/05 06:47:31;;;;;;;0.35;0.20;;;;;;;;;;4953566;28;20035;-81
2023/08/05 06:49:57;;;;;;;0.30;0.30;;;;;;;;;;4952110;29;20042;-81
2023/08/05 06:52:23;;;;;;;0.47;0.45;;;;;;;;;;4951762;29;20126;-85
2023/08/05 06:54:49;;;;;;;0.30;0.30;;;;;;;;;;4944756;28;20531;-84
2023/08/05 06:57:15;;;;;;;0.03;0.03;;;;;;;;;;4951963;29;20027;-85
2023/08/05 06:59:41;;;;;;;0.10;0.10;;;;;;;;;;4952296;29;20031;-86
2023/08/05 07:02:07;;;;;;;0.20;0.20;;;;;;;;;;4952268;28;20050;-85
2023/08/05 07:04:33;;;;;;;0.10;0.10;;;;;;;;;;4941235;29;20032;-86
2023/08/05 07:06:59;;;;;;;0.32;0.13;;;;;;;;;;4951335;28;20098;-86
2023/08/05 07:09:25;;;;;;;0.10;0.10;;;;;;;;;;4950355;28;20784;-86
2023/08/05 07:11:54;;;;;;;0.10;0.10;;;;;;;;;;4951439;28;20149;-86
2023/08/05 07:14:20;;;;;;;0.30;0.30;;;;;;;;;;4946167;29;20050;-95
2023/08/05 07:16:46;;;;;;;0.17;0.17;;;;;;;;;;4953980;29;20101;-86
2023/08/05 07:19:12;;;;;;;0.10;0.10;;;;;;;;;;4938081;29;20435;-87
2023/08/05 07:21:38;;;;;;;0.22;0.22;;;;;;;;;;4933190;29;20027;-87
2023/08/05 07:24:04;;;;;;;0.65;0.32;;;;;;;;;;4941142;28;20031;-86
2023/08/05 07:26:30;;;;;;;0.70;0.50;;;;;;;;;;4950842;29;20100;-84
2023/08/05 07:28:56;;;;;;;0.10;0.10;;;;;;;;;;4950799;29;20480;-82
2023/08/05 07:31:22;;;;;;;0.00;0.00;;;;;;;;;;4936126;29;20031;-82
2023/08/05 07:33:49;;;;;;;0.15;0.15;;;;;;;;;;4992212;28;20038;-83
2023/08/05 07:36:16;;;;;;;0.30;0.30;;;;;;;;;;4951295;29;20106;-88
2023/08/05 07:38:44;;;;;;;0.03;0.03;;;;;;;;;;4933907;28;20456;-83
2023/08/05 07:41:11;;;;;;;0.10;0.10;;;;;;;;;;4943630;29;20539;-83
2023/08/05 07:43:38;;;;;;;0.15;0.15;;;;;;;;;;4951334;28;20502;-83
2023/08/05 07:46:05;;;;;;;0.10;0.10;;;;;;;;;;4956085;28;20108;-82
2023/08/05 07:48:39;;;;;;;0.00;0.00;;;;;;;;;;4957737;28;20035;-83
2023/08/05 07:51:06;;;;;;;0.10;0.10;;;;;;;;;;4951537;28;20031;-83
2023/08/05 07:53:36;;;;;;;0.17;0.17;;;;;;;;;;4970245;28;20491;-83
2023/08/05 07:56:09;;;;;;;0.50;0.20;;;;;;;;;;4968452;28;20383;-83
2023/08/05 07:58:35;;;;;;;0.20;0.20;;;;;;;;;;4951197;29;20551;-83
2023/08/05 08:01:00;;;;;;;0.10;0.10;;;;;;;;;;4951422;29;20153;-83
2023/08/05 08:03:29;;;;;;;0.10;0.10;;;;;;;;;;4953122;28;20401;-84
2023/08/05 08:05:55;;;;;;;0.43;0.30;;;;;;;;;;4949422;28;20020;-83
2023/08/05 08:08:21;;;;;;;0.57;0.30;;;;;;;;;;4931267;28;20036;-84
2023/08/05 08:10:47;;;;;;;0.10;0.10;;;;;;;;;;4946002;28;20116;-85
2023/08/05 08:13:14;;;;;;;0.10;0.10;;;;;;;;;;4982106;28;20035;-83
2023/08/05 08:15:40;;;;;;;0.52;0.35;;;;;;;;;;4972826;28;20074;-89
2023/08/05 08:18:06;;;;;;;0.10;0.10;;;;;;;;;;4972631;28;20027;-89
2023/08/05 08:20:32;;;;;;;0.10;0.10;;;;;;;;;;4971032;28;20023;-88
2023/08/05 08:22:58;;;;;;;0.10;0.10;;;;;;;;;;4950739;28;20391;-86
2023/08/05 08:25:24;;;;;;;0.20;0.20;;;;;;;;;;4950364;28;20122;-87
2023/08/05 08:27:50;;;;;;;0.28;0.20;;;;;;;;;;4949374;29;20066;-89
2023/08/05 08:30:16;;;;;;;0.20;0.20;;;;;;;;;;4949860;29;20376;-87
2023/08/05 08:32:42;;;;;;;0.10;0.10;;;;;;;;;;4950991;28;20035;-87
2023/08/05 08:35:08;;;;;;;0.80;0.40;;;;;;;;;;4950613;29;20024;-86
2023/08/05 08:37:34;;;;;;;0.20;0.20;;;;;;;;;;4952035;28;20031;-86
2023/08/05 08:40:00;;;;;;;0.75;0.20;;;;;;;;;;4953352;28;20139;-87
2023/08/05 08:42:26;;;;;;;1.75;0.52;;;;;;;;;;4953880;29;20031;-85
2023/08/05 08:44:53;;;;;;;0.10;0.10;;;;;;;;;;4953831;29;20019;-86
2023/08/05 08:47:20;;;;;;;0.00;0.00;;;;;;;;;;5012062;28;20028;-85
2023/08/05 08:49:47;;;;;;;0.10;0.10;;;;;;;;;;5055185;28;20025;-86
2023/08/05 08:52:15;;;;;;;0.10;0.10;;;;;;;;;;4985076;28;20036;-85
2023/08/05 08:54:40;;;;;;;0.10;0.10;;;;;;;;;;4933748;28;20054;-83
2023/08/05 08:57:07;;;;;;;0.10;0.10;;;;;;;;;;4946781;28;20035;-83
2023/08/05 08:59:33;;;;;;;0.10;0.10;;;;;;;;;;4938783;29;20400;-85
2023/08/05 09:01:59;;;;;;;0.35;0.30;;;;;;;;;;4944730;28;20491;-83
2023/08/05 09:04:27;;;;;;;0.28;0.20;;;;;;;;;;4950988;29;20035;-84
2023/08/05 09:06:53;;;;;;;0.15;0.15;;;;;;;;;;4960307;28;20438;-88
2023/08/05 09:09:19;;;;;;;0.00;0.00;;;;;;;;;;4987221;28;20029;-82
2023/08/05 09:11:45;;;;;;;0.17;0.17;;;;;;;;;;4967507;28;20448;-83
2023/08/05 09:14:15;;;;;;;0.20;0.20;;;;;;;;;;4960539;28;20111;-83
2023/08/05 09:17:00;;;;;;;0.10;0.10;;;;;;;;;;4967583;28;20048;-82
2023/08/05 09:19:29;;;;;;;0.55;0.50;;;;;;;;;;4970194;28;20387;-83
2023/08/05 09:21:56;;;;;;;0.10;0.10;;;;;;;;;;4972256;28;20411;-83
2023/08/05 09:24:26;;;;;;;0.20;0.20;;;;;;;;;;4960491;28;20031;-83
2023/08/05 09:26:58;;;;;;;0.10;0.10;;;;;;;;;;4954245;28;20550;-83
2023/08/05 09:29:25;;;;;;;0.00;0.00;;;;;;;;;;4963703;28;20027;-83
2023/08/05 09:31:54;;;;;;;0.10;0.10;;;;;;;;;;4952373;28;20039;-84
2023/08/05 09:34:21;;;;;;;0.00;0.00;;;;;;;;;;4951708;28;20399;-84
2023/08/05 09:36:47;;;;;;;0.10;0.10;;;;;;;;;;4952891;29;20094;-83
2023/08/05 09:39:16;;;;;;;0.57;0.57;;;;;;;;;;4953875;28;20069;-83
2023/08/05 09:41:51;;;;;;;0.10;0.10;;;;;;;;;;4964235;28;20027;-83
2023/08/05 09:44:17;;;;;;;0.30;0.30;;;;;;;;;;4953038;29;20034;-83
2023/08/05 09:46:46;;;;;;;0.30;0.30;;;;;;;;;;4966126;28;20042;-84
2023/08/05 09:49:14;;;;;;;0.20;0.20;;;;;;;;;;4971655;28;20031;-84
2023/08/05 09:51:42;;;;;;;0.00;0.00;;;;;;;;;;4972083;28;20106;-83
2023/08/05 09:54:11;;;;;;;0.13;0.13;;;;;;;;;;4972229;28;20052;-83
2023/08/05 09:56:39;;;;;;;0.10;0.05;;;;;;;;;;4954650;28;20027;-84
2023/08/05 09:59:07;;;;;;;2.22;0.93;;;;;;;;;;4934103;29;20027;-84
2023/08/05 10:01:34;;;;;;;0.25;0.25;;;;;;;;;;4942097;28;20033;-82
2023/08/05 10:04:01;;;;;;;0.08;0.08;;;;;;;;;;4946877;28;20039;-85
2023/08/05 10:06:28;;;;;;;0.10;0.10;;;;;;;;;;4952374;28;20081;-83
2023/08/05 10:08:54;;;;;;;0.20;0.13;;;;;;;;;;4994479;28;20039;-83
2023/08/05 10:11:21;;;;;;;0.00;0.00;;;;;;;;;;4950728;29;20028;-83
2023/08/05 10:13:52;;;;;;;0.20;0.20;;;;;;;;;;4952777;28;20043;-83
2023/08/05 10:16:19;;;;;;;0.10;0.10;;;;;;;;;;4952517;29;20134;-83
2023/08/05 10:18:45;;;;;;;0.00;0.00;;;;;;;;;;4985720;28;20087;-83
2023/08/05 10:21:11;;;;;;;0.20;0.20;;;;;;;;;;5033445;28;20108;-83
2023/08/05 10:23:37;;;;;;;0.10;0.10;;;;;;;;;;5004345;28;20057;-83
2023/08/05 10:26:04;;;;;;;0.38;0.38;;;;;;;;;;4950049;29;20039;-83
2023/08/05 10:28:38;;;;;;;0.10;0.10;;;;;;;;;;4952789;28;20027;-84
2023/08/05 10:31:23;;;;;;;0.22;0.15;;;;;;;;;;4952092;29;20027;-83
2023/08/05 10:34:16;;;;;;;0.10;0.10;;;;;;;;;;4952281;29;20084;-83
2023/08/05 10:36:46;;;;;;;0.20;0.20;;;;;;;;;;4952033;28;20036;-83
2023/08/05 10:39:31;;;;;;;0.13;0.13;;;;;;;;;;4951506;29;20035;-84
2023/08/05 10:41:57;;;;;;;0.10;0.10;;;;;;;;;;4946341;28;20115;-83
2023/08/05 10:44:34;;;;;;;0.65;0.30;;;;;;;;;;4952210;28;20058;-83
2023/08/05 10:47:03;;;;;;;0.10;0.10;;;;;;;;;;4950677;29;20072;-84
2023/08/05 10:49:29;;;;;;;0.10;0.10;;;;;;;;;;4952304;28;20109;-83
2023/08/05 10:51:55;;;;;;;0.17;0.17;;;;;;;;;;4952919;28;20069;-83
2023/08/05 10:54:21;;;;;;;0.30;0.13;;;;;;;;;;4949641;28;20046;-83
2023/08/05 10:56:47;;;;;;;0.10;0.10;;;;;;;;;;4951441;28;20050;-87
2023/08/05 10:59:14;;;;;;;0.00;0.00;;;;;;;;;;4951325;28;20500;-84
2023/08/05 11:01:55;;;;;;;0.10;0.10;;;;;;;;;;4947988;28;22226;-83
2023/08/05 11:04:31;;;;;;;0.30;0.30;;;;;;;;;;4951889;28;20034;-83
2023/08/05 11:06:59;;;;;;;0.35;0.28;;;;;;;;;;4951202;28;20403;-83
2023/08/05 11:09:25;;;;;;;0.47;0.38;;;;;;;;;;4951390;28;20080;-83
2023/08/05 11:11:52;;;;;;;0.10;0.10;;;;;;;;;;4951399;28;20031;-83
2023/08/05 11:14:18;;;;;;;0.00;0.00;;;;;;;;;;4951579;29;20035;-85
2023/08/05 11:16:48;;;;;;;0.20;0.20;;;;;;;;;;4951952;28;20574;-84
2023/08/05 11:19:15;;;;;;;0.00;0.00;;;;;;;;;;4951667;28;20031;-83
2023/08/05 11:21:45;;;;;;;0.20;0.20;;;;;;;;;;4949186;28;20039;-83
2023/08/05 11:24:20;;;;;;;0.00;0.00;;;;;;;;;;4949845;28;20031;-85
2023/08/05 11:26:49;;;;;;;0.52;0.30;;;;;;;;;;4963042;28;20097;-83
2023/08/05 11:29:15;;;;;;;0.10;0.10;;;;;;;;;;4959414;28;20036;-83
2023/08/05 11:31:50;;;;;;;0.10;0.10;;;;;;;;;;4951872;28;20157;-84
2023/08/05 11:34:24;;;;;;;0.10;0.10;;;;;;;;;;4951554;28;20054;-83
2023/08/05 11:36:56;;;;;;;0.10;0.10;;;;;;;;;;4933419;28;20028;-84
2023/08/05 11:39:25;;;;;;;0.00;0.00;;;;;;;;;;4938622;29;20142;-83
2023/08/05 11:41:51;;;;;;;0.10;0.10;;;;;;;;;;4951439;28;20129;-84
2023/08/05 11:44:18;;;;;;;0.00;0.00;;;;;;;;;;4951503;29;20495;-85
2023/08/05 11:46:44;;;;;;;0.47;0.35;;;;;;;;;;4950747;28;20135;-85
2023/08/05 11:49:11;;;;;;;0.15;0.15;;;;;;;;;;4951383;29;20058;-85
2023/08/05 11:51:44;;;;;;;0.38;0.20;;;;;;;;;;4949329;28;20034;-81
2023/08/05 11:54:10;;;;;;;0.10;0.10;;;;;;;;;;4953719;28;20527;-90
2023/08/05 11:56:36;;;;;;;0.10;0.10;;;;;;;;;;4943357;28;20118;-89
2023/08/05 11:59:02;;;;;;;0.13;0.13;;;;;;;;;;4940106;28;20114;-85
2023/08/05 12:01:28;;;;;;;0.10;0.10;;;;;;;;;;4934191;29;20031;-86
2023/08/05 12:03:57;;;;;;;0.00;0.00;;;;;;;;;;4932113;29;20043;-86
2023/08/05 12:06:27;;;;;;;0.20;0.20;;;;;;;;;;4946088;28;20023;-91
2023/08/05 12:09:00;;;;;;;0.10;0.10;;;;;;;;;;4950986;29;20032;-84
2023/08/05 12:11:26;;;;;;;0.30;0.30;;;;;;;;;;4949848;28;20027;-85
2023/08/05 12:13:52;;;;;;;0.50;0.13;;;;;;;;;;4953234;29;20113;-83
2023/08/05 12:16:18;;;;;;;0.15;0.10;;;;;;;;;;4953936;29;20134;-84
2023/08/05 12:18:45;;;;;;;0.00;0.00;;;;;;;;;;4953836;28;20027;-84
2023/08/05 12:21:11;;;;;;;0.17;0.17;;;;;;;;;;4953970;28;20102;-83
2023/08/05 12:23:40;;;;;;;2.53;1.00;;;;;;;;;;4954706;28;20023;-85
2023/08/05 12:26:07;;;;;;;0.70;0.57;;;;;;;;;;4953864;28;20031;-85
2023/08/05 12:28:33;;;;;;;0.10;0.10;;;;;;;;;;4954201;29;20543;-85
2023/08/05 12:30:59;;;;;;;0.38;0.30;;;;;;;;;;4953621;28;20059;-85
2023/08/05 12:33:25;;;;;;;0.30;0.30;;;;;;;;;;4964674;28;20074;-86
2023/08/05 12:35:51;;;;;;;0.17;0.17;;;;;;;;;;4967579;28;20065;-86
2023/08/05 12:38:17;;;;;;;0.17;0.17;;;;;;;;;;4954450;29;20476;-86
2023/08/05 12:40:43;;;;;;;0.00;0.00;;;;;;;;;;4946182;29;20106;-86
2023/08/05 12:43:09;;;;;;;0.77;0.28;;;;;;;;;;4991526;28;20371;-86
2023/08/05 12:45:35;;;;;;;0.10;0.10;;;;;;;;;;4966450;28;20031;-86
2023/08/05 12:48:01;;;;;;;0.00;0.00;;;;;;;;;;4943997;28;20046;-86
2023/08/05 12:50:27;;;;;;;0.30;0.30;;;;;;;;;;4954020;28;20169;-86
2023/08/05 12:52:53;;;;;;;0.15;0.10;;;;;;;;;;4994687;28;20042;-86
2023/08/05 12:55:19;;;;;;;0.10;0.10;;;;;;;;;;4946966;28;20028;-86
2023/08/05 12:57:45;;;;;;;0.20;0.20;;;;;;;;;;4948173;28;20028;-86
2023/08/05 13:00:12;;;;;;;0.00;0.00;;;;;;;;;;4947551;28;20035;-86
2023/08/05 13:02:38;;;;;;;0.15;0.10;;;;;;;;;;4948336;28;20540;-86
2023/08/05 13:05:04;;;;;;;0.10;0.10;;;;;;;;;;4938008;28;20111;-86
2023/08/05 13:07:30;;;;;;;0.10;0.10;;;;;;;;;;4952815;29;20475;-86
2023/08/05 13:09:56;;;;;;;0.20;0.20;;;;;;;;;;4941440;29;20035;-84
2023/08/05 13:12:22;;;;;;;0.08;0.08;;;;;;;;;;4946526;29;20114;-85
2023/08/05 13:14:48;;;;;;;0.50;0.30;;;;;;;;;;4956097;28;20039;-85
2023/08/05 13:17:14;;;;;;;0.10;0.10;;;;;;;;;;4951170;28;20031;-85
2023/08/05 13:19:40;;;;;;;0.15;0.15;;;;;;;;;;4947428;29;20460;-86
2023/08/05 13:22:06;;;;;;;0.10;0.10;;;;;;;;;;4947538;28;20031;-85
2023/08/05 13:24:33;;;;;;;0.40;0.20;;;;;;;;;;4951948;28;20446;-85
2023/08/05 13:26:59;;;;;;;0.08;0.08;;;;;;;;;;4952436;28;20027;-85
2023/08/05 13:29:25;;;;;;;0.10;0.10;;;;;;;;;;4947972;28;20035;-84
2023/08/05 13:31:51;;;;;;;0.30;0.30;;;;;;;;;;4953209;29;20031;-85
2023/08/05 13:34:17;;;;;;;0.15;0.15;;;;;;;;;;4952371;28;20047;-84
2023/08/05 13:36:43;;;;;;;0.10;0.10;;;;;;;;;;4953006;29;20031;-86
2023/08/05 13:39:09;;;;;;;0.55;0.10;;;;;;;;;;4950188;29;20506;-85
2023/08/05 13:41:35;;;;;;;0.20;0.00;;;;;;;;;;4952989;29;20024;-84
2023/08/05 13:44:01;;;;;;;0.10;0.10;;;;;;;;;;4951829;28;20047;-85
2023/08/05 13:46:27;;;;;;;0.10;0.10;;;;;;;;;;4953270;29;20031;-85
2023/08/05 13:48:53;;;;;;;0.10;0.10;;;;;;;;;;4951308;29;20078;-84
2023/08/05 13:51:19;;;;;;;0.30;0.30;;;;;;;;;;4951067;29;20058;-84
2023/08/05 13:53:45;;;;;;;0.17;0.17;;;;;;;;;;4932991;29;20507;-85
2023/08/05 13:56:11;;;;;;;0.03;0.03;;;;;;;;;;4943956;28;20031;-85
2023/08/05 13:58:37;;;;;;;0.00;0.00;;;;;;;;;;4933588;29;20035;-84
2023/08/05 14:01:04;;;;;;;0.20;0.20;;;;;;;;;;4934780;29;20032;-83
2023/08/05 14:03:30;;;;;;;0.22;0.10;;;;;;;;;;4943693;28;20031;-84
2023/08/05 14:05:57;;;;;;;0.10;0.10;;;;;;;;;;4962525;28;20049;-85
2023/08/05 14:08:23;;;;;;;0.20;0.20;;;;;;;;;;4940275;28;20032;-85
2023/08/05 14:10:50;;;;;;;0.03;0.03;;;;;;;;;;4960081;28;20050;-85
2023/08/05 14:13:16;;;;;;;0.17;0.17;;;;;;;;;;4952588;28;20043;-83
2023/08/05 14:15:42;;;;;;;0.00;0.00;;;;;;;;;;4952126;28;20442;-85
2023/08/05 14:18:08;;;;;;;0.10;0.10;;;;;;;;;;4952363;28;20077;-85
2023/08/05 14:20:34;;;;;;;0.10;0.10;;;;;;;;;;4936032;28;20507;-85
2023/08/05 14:23:00;;;;;;;0.57;0.38;;;;;;;;;;4944598;28;20039;-85
2023/08/05 14:25:26;;;;;;;0.10;0.10;;;;;;;;;;4952476;29;20111;-85
2023/08/05 14:27:52;;;;;;;0.10;0.10;;;;;;;;;;4952049;29;20395;-84
2023/08/05 14:30:18;;;;;;;0.10;0.10;;;;;;;;;;4951169;28;20034;-84
2023/08/05 14:32:44;;;;;;;0.10;0.10;;;;;;;;;;4951600;29;20047;-89
2023/08/05 14:35:10;;;;;;;0.25;0.22;;;;;;;;;;4951579;28;20031;-85
2023/08/05 14:37:36;;;;;;;0.10;0.10;;;;;;;;;;4952427;28;20038;-86
2023/08/05 14:40:03;;;;;;;0.00;0.00;;;;;;;;;;4952323;28;20531;-85
2023/08/05 14:42:28;;;;;;;0.10;0.10;;;;;;;;;;4951690;29;20031;-84